createdAt,value
2023-08-20T00:02:27.896Z,22.05
2023-08-20T00:05:00.203Z,22.08
2023-08-20T00:07:29.665Z,22.13
2023-08-20T00:09:58.198Z,22.14
2023-08-20T00:12:27.374Z,22.13
2023-08-20T00:15:00.025Z,22.07
2023-08-20T00:17:29.447Z,22.01
2023-08-20T00:19:58.758Z,21.93
2023-08-20T00:22:29.183Z,21.89
2023-08-20T00:24:58.576Z,21.89
2023-08-20T00:27:27.410Z,21.93
2023-08-20T00:29:57.737Z,21.86
2023-08-20T00:32:26.817Z,21.75
2023-08-20T00:34:55.547Z,21.61
2023-08-20T00:37:24.806Z,21.57
2023-08-20T00:39:53.747Z,21.52
2023-08-20T00:42:22.829Z,21.50
2023-08-20T00:44:51.718Z,21.48
2023-08-20T00:47:22.864Z,21.49
2023-08-20T00:49:52.314Z,21.48
2023-08-20T00:52:23.272Z,21.45
2023-08-20T00:54:52.813Z,21.38
2023-08-20T00:57:24.977Z,21.42
2023-08-20T00:59:53.955Z,21.45
2023-08-20T01:02:24.515Z,21.45
2023-08-20T01:04:55.091Z,21.48
2023-08-20T01:07:33.072Z,21.51
2023-08-20T01:10:10.854Z,21.47
2023-08-20T01:12:41.408Z,21.48
2023-08-20T01:15:15.061Z,21.51
2023-08-20T01:17:49.051Z,21.50
2023-08-20T01:20:18.359Z,21.48
2023-08-20T01:23:19.052Z,21.49
2023-08-20T01:26:05.707Z,21.46
2023-08-20T01:28:36.886Z,21.48
2023-08-20T01:31:06.572Z,21.47
2023-08-20T01:33:35.831Z,21.51
2023-08-20T01:36:11.690Z,21.49
2023-08-20T01:38:40.780Z,21.48
2023-08-20T01:41:09.550Z,21.48
2023-08-20T01:43:39.800Z,21.53
2023-08-20T01:46:11.320Z,21.54
2023-08-20T01:48:40.295Z,21.52
2023-08-20T01:51:10.084Z,21.48
2023-08-20T01:53:39.092Z,21.48
2023-08-20T01:56:13.656Z,21.49
2023-08-20T01:58:44.390Z,21.45
2023-08-20T02:01:13.741Z,21.45
2023-08-20T02:03:42.764Z,21.47
2023-08-20T02:06:11.828Z,21.49
2023-08-20T02:08:40.662Z,21.49
2023-08-20T02:11:09.717Z,21.49
2023-08-20T02:13:38.949Z,21.48
2023-08-20T02:16:09.170Z,21.51
2023-08-20T02:18:38.774Z,21.51
2023-08-20T02:21:07.673Z,21.45
2023-08-20T02:23:37.292Z,21.41
2023-08-20T02:26:08.537Z,21.38
2023-08-20T02:28:37.531Z,21.36
2023-08-20T02:31:08.505Z,21.37
2023-08-20T02:33:37.485Z,21.41
2023-08-20T02:36:07.252Z,21.44
2023-08-20T02:38:36.567Z,21.42
2023-08-20T02:41:05.479Z,21.43
2023-08-20T02:43:34.851Z,21.43
2023-08-20T02:46:04.362Z,21.47
2023-08-20T02:48:35.112Z,21.42
2023-08-20T02:51:04.044Z,21.43
2023-08-20T02:53:32.962Z,21.42
2023-08-20T02:56:02.061Z,21.38
2023-08-20T02:58:31.822Z,21.38
2023-08-20T03:01:01.196Z,21.38
2023-08-20T03:03:30.076Z,21.35
2023-08-20T03:06:02.150Z,21.36
2023-08-20T03:08:30.955Z,21.33
2023-08-20T03:10:59.936Z,21.31
2023-08-20T03:13:28.879Z,21.30
2023-08-20T03:15:57.767Z,21.26
2023-08-20T03:18:26.834Z,21.24
2023-08-20T03:20:57.930Z,21.25
2023-08-20T03:23:29.665Z,21.25
2023-08-20T03:26:01.133Z,21.21
2023-08-20T03:28:30.265Z,21.20
2023-08-20T03:31:03.453Z,21.19
2023-08-20T03:33:37.235Z,21.16
2023-08-20T03:36:06.664Z,21.17
2023-08-20T03:38:36.993Z,21.19
2023-08-20T03:41:07.787Z,21.18
2023-08-20T03:43:38.623Z,21.17
2023-08-20T03:46:07.764Z,21.16
2023-08-20T03:48:36.653Z,21.10
2023-08-20T03:51:07.266Z,21.08
2023-08-20T03:53:37.679Z,21.11
2023-08-20T03:56:07.020Z,21.13
2023-08-20T03:58:35.766Z,21.14
2023-08-20T04:01:05.272Z,21.13
2023-08-20T04:03:34.616Z,21.10
2023-08-20T04:06:03.244Z,21.10
2023-08-20T04:08:32.167Z,21.14
2023-08-20T04:11:03.798Z,21.12
2023-08-20T04:13:32.825Z,21.08
2023-08-20T04:16:01.640Z,21.10
2023-08-20T04:18:30.948Z,21.05
2023-08-20T04:20:59.838Z,21.08
2023-08-20T04:23:28.995Z,21.09
2023-08-20T04:26:00.565Z,21.12
2023-08-20T04:28:31.007Z,21.15
2023-08-20T04:31:01.655Z,21.16
2023-08-20T04:33:40.371Z,21.20
2023-08-20T04:36:09.686Z,21.25
2023-08-20T04:38:38.547Z,21.25
2023-08-20T04:41:08.027Z,21.30
2023-08-20T04:43:38.648Z,21.36
2023-08-20T04:46:08.488Z,21.38
2023-08-20T04:48:37.309Z,21.38
2023-08-20T04:51:08.447Z,21.35
2023-08-20T04:53:38.286Z,21.34
2023-08-20T04:56:07.179Z,21.38
2023-08-20T04:58:36.121Z,21.46
2023-08-20T05:01:07.188Z,21.46
2023-08-20T05:03:38.277Z,21.46
2023-08-20T05:06:07.386Z,21.52
2023-08-20T05:08:36.136Z,21.56
2023-08-20T05:11:04.986Z,21.62
2023-08-20T05:13:33.785Z,21.72
2023-08-20T05:16:03.244Z,21.77
2023-08-20T05:18:33.528Z,21.83
2023-08-20T05:21:03.765Z,21.91
2023-08-20T05:23:32.686Z,22.02
2023-08-20T05:26:01.511Z,22.07
2023-08-20T05:28:30.386Z,22.14
2023-08-20T05:30:59.566Z,22.24
2023-08-20T05:33:28.804Z,22.33
2023-08-20T05:35:59.522Z,22.40
2023-08-20T05:38:29.469Z,22.50
2023-08-20T05:40:58.377Z,22.61
2023-08-20T05:43:27.237Z,22.76
2023-08-20T05:45:56.269Z,22.84
2023-08-20T05:48:26.457Z,22.91
2023-08-20T05:50:55.378Z,22.93
2023-08-20T05:53:25.898Z,22.97
2023-08-20T05:55:55.443Z,23.05
2023-08-20T05:58:24.418Z,23.20
2023-08-20T06:00:53.798Z,23.32
2023-08-20T06:03:23.393Z,23.42
2023-08-20T06:05:52.237Z,23.48
2023-08-20T06:08:21.082Z,23.46
2023-08-20T06:10:51.300Z,23.58
2023-08-20T06:13:20.209Z,23.63
2023-08-20T06:15:49.475Z,23.71
2023-08-20T06:18:18.298Z,23.72
2023-08-20T06:20:47.078Z,23.81
2023-08-20T06:23:31.871Z,23.87
2023-08-20T06:26:07.292Z,23.89
2023-08-20T06:28:36.215Z,24.02
2023-08-20T06:31:05.102Z,24.15
2023-08-20T06:33:34.007Z,24.29
2023-08-20T06:36:02.946Z,24.41
2023-08-20T06:38:31.852Z,24.49
2023-08-20T06:41:00.733Z,24.55
2023-08-20T06:43:31.499Z,24.66
2023-08-20T06:46:00.425Z,24.67
2023-08-20T06:48:29.296Z,24.72
2023-08-20T06:50:58.713Z,24.80
2023-08-20T06:53:27.937Z,24.88
2023-08-20T06:55:56.726Z,24.95
2023-08-20T06:58:25.737Z,25.01
2023-08-20T07:00:56.029Z,25.07
2023-08-20T07:03:24.986Z,25.20
2023-08-20T07:05:53.812Z,25.32
2023-08-20T07:08:22.798Z,25.44
2023-08-20T07:10:51.547Z,25.51
2023-08-20T07:13:20.380Z,25.63
2023-08-20T07:15:49.157Z,25.70
2023-08-20T07:18:19.459Z,25.78
2023-08-20T07:20:48.552Z,25.85
2023-08-20T07:23:17.288Z,25.96
2023-08-20T07:25:48.084Z,26.05
2023-08-20T07:28:22.273Z,26.14
2023-08-20T07:30:51.117Z,26.20
2023-08-20T07:33:21.369Z,26.26
2023-08-20T07:35:50.228Z,26.39
2023-08-20T07:38:19.178Z,26.51
2023-08-20T07:40:48.002Z,26.62
2023-08-20T07:43:16.780Z,26.75
2023-08-20T07:45:45.835Z,26.80
2023-08-20T07:48:15.219Z,26.90
2023-08-20T07:50:45.551Z,27.01
2023-08-20T07:53:14.382Z,27.09
2023-08-20T07:55:43.516Z,27.16
2023-08-20T07:58:12.089Z,27.32
2023-08-20T08:00:40.839Z,27.38
2023-08-20T08:03:11.088Z,27.43
2023-08-20T08:05:40.031Z,27.52
2023-08-20T08:08:10.364Z,27.55
2023-08-20T08:10:39.339Z,27.60
2023-08-20T08:13:09.589Z,27.71
2023-08-20T08:15:39.119Z,27.85
2023-08-20T08:18:07.771Z,27.95
2023-08-20T08:20:37.029Z,28.07
2023-08-20T08:23:06.282Z,28.21
2023-08-20T08:25:36.689Z,28.28
2023-08-20T08:28:06.173Z,28.40
2023-08-20T08:30:35.106Z,28.53
2023-08-20T08:33:03.928Z,28.66
2023-08-20T08:35:32.598Z,28.70
2023-08-20T08:38:01.562Z,28.74
2023-08-20T08:40:31.819Z,28.79
2023-08-20T08:43:05.711Z,28.87
2023-08-20T08:45:35.903Z,28.97
2023-08-20T08:48:05.540Z,29.12
2023-08-20T08:50:34.828Z,29.20
2023-08-20T08:53:03.981Z,29.30
2023-08-20T08:55:32.392Z,29.35
2023-08-20T08:58:02.566Z,29.38
2023-08-20T09:00:33.819Z,29.49
2023-08-20T09:03:03.155Z,29.63
2023-08-20T09:05:31.956Z,29.80
2023-08-20T09:08:00.811Z,29.90
2023-08-20T09:10:29.851Z,30.07
2023-08-20T09:12:59.218Z,30.13
2023-08-20T09:15:36.974Z,30.20
2023-08-20T09:18:06.195Z,30.40
2023-08-20T09:20:37.803Z,30.52
2023-08-20T09:23:06.879Z,30.62
2023-08-20T09:25:35.355Z,30.69
2023-08-20T09:28:05.837Z,30.74
2023-08-20T09:30:36.751Z,30.85
2023-08-20T09:33:07.232Z,30.92
2023-08-20T09:35:36.246Z,30.95
2023-08-20T09:38:08.030Z,31.05
2023-08-20T09:40:36.832Z,31.10
2023-08-20T09:43:09.647Z,31.23
2023-08-20T09:45:41.075Z,31.32
2023-08-20T09:48:11.974Z,31.38
2023-08-20T09:50:42.975Z,31.51
2023-08-20T09:53:24.235Z,31.64
2023-08-20T09:55:54.959Z,31.59
2023-08-20T09:58:27.005Z,31.69
2023-08-20T10:00:59.226Z,31.65
2023-08-20T10:03:28.267Z,31.56
2023-08-20T10:05:59.437Z,31.62
2023-08-20T10:08:29.479Z,31.70
2023-08-20T10:10:58.584Z,31.86
2023-08-20T10:13:27.454Z,31.91
2023-08-20T10:15:58.014Z,32.02
2023-08-20T10:18:29.011Z,32.05
2023-08-20T10:21:04.190Z,32.10
2023-08-20T10:23:34.676Z,32.07
2023-08-20T10:26:10.358Z,32.08
2023-08-20T10:28:39.560Z,32.13
2023-08-20T10:31:14.192Z,32.20
2023-08-20T10:33:52.387Z,32.15
2023-08-20T10:36:27.606Z,32.22
2023-08-20T10:38:58.230Z,32.43
2023-08-20T10:41:30.884Z,32.59
2023-08-20T10:44:01.648Z,32.75
2023-08-20T10:46:32.651Z,32.81
2023-08-20T10:49:05.367Z,32.90
2023-08-20T10:51:36.596Z,32.60
2023-08-20T10:54:08.399Z,32.31
2023-08-20T10:56:42.334Z,32.30
2023-08-20T10:59:12.058Z,32.55
2023-08-20T11:01:42.777Z,32.65
2023-08-20T11:04:11.976Z,32.90
2023-08-20T11:06:41.636Z,33.18
2023-08-20T11:09:12.236Z,33.24
2023-08-20T11:11:41.828Z,33.24
2023-08-20T11:14:16.184Z,32.90
2023-08-20T11:16:47.193Z,32.52
2023-08-20T11:19:17.366Z,32.33
2023-08-20T11:21:47.358Z,32.45
2023-08-20T11:24:16.378Z,32.76
2023-08-20T11:26:45.039Z,33.01
2023-08-20T11:29:15.228Z,33.06
2023-08-20T11:31:45.697Z,33.27
2023-08-20T11:34:15.211Z,33.34
2023-08-20T11:36:44.468Z,33.35
2023-08-20T11:39:13.555Z,33.33
2023-08-20T11:41:43.172Z,33.26
2023-08-20T11:44:12.130Z,32.98
2023-08-20T11:46:46.680Z,32.96
2023-08-20T11:49:16.425Z,33.15
2023-08-20T11:51:48.269Z,33.27
2023-08-20T11:54:19.381Z,33.43
2023-08-20T11:56:49.852Z,33.46
2023-08-20T11:59:20.973Z,33.58
2023-08-20T12:01:54.544Z,33.65
2023-08-20T12:04:27.624Z,33.74
2023-08-20T12:07:06.531Z,33.94
2023-08-20T12:09:36.214Z,34.04
2023-08-20T12:12:08.177Z,34.07
2023-08-20T12:14:37.863Z,33.96
2023-08-20T12:17:08.248Z,34.16
2023-08-20T12:19:37.083Z,34.24
2023-08-20T12:22:06.009Z,34.24
2023-08-20T12:24:35.443Z,34.32
2023-08-20T12:27:04.929Z,34.32
2023-08-20T12:29:33.808Z,34.51
2023-08-20T12:32:02.906Z,34.34
2023-08-20T12:34:33.223Z,34.16
2023-08-20T12:37:02.432Z,34.11
2023-08-20T12:39:31.324Z,34.26
2023-08-20T12:42:00.428Z,34.31
2023-08-20T12:44:29.181Z,34.55
2023-08-20T12:46:57.675Z,34.74
2023-08-20T12:49:26.419Z,34.62
2023-08-20T12:51:56.543Z,34.40
2023-08-20T12:54:25.400Z,34.41
2023-08-20T12:56:53.964Z,34.43
2023-08-20T12:59:24.878Z,34.38
2023-08-20T13:01:55.885Z,34.45
2023-08-20T13:04:25.345Z,34.55
2023-08-20T13:06:54.671Z,34.53
2023-08-20T13:09:25.571Z,34.38
2023-08-20T13:11:58.379Z,34.34
2023-08-20T13:14:27.933Z,34.22
2023-08-20T13:16:57.923Z,33.82
2023-08-20T13:19:26.582Z,33.65
2023-08-20T13:21:55.549Z,33.51
2023-08-20T13:24:25.320Z,33.27
2023-08-20T13:26:54.301Z,33.06
2023-08-20T13:29:22.680Z,33.15
2023-08-20T13:31:51.688Z,33.35
2023-08-20T13:34:20.252Z,33.34
2023-08-20T13:36:49.804Z,33.43
2023-08-20T13:39:19.705Z,33.47
2023-08-20T13:41:52.562Z,33.46
2023-08-20T13:44:22.581Z,33.59
2023-08-20T13:46:51.459Z,33.72
2023-08-20T13:49:20.116Z,33.93
2023-08-20T13:51:48.992Z,33.71
2023-08-20T13:54:17.849Z,33.32
2023-08-20T13:56:46.721Z,33.07
2023-08-20T13:59:16.671Z,32.94
2023-08-20T14:01:45.460Z,33.02
2023-08-20T14:04:15.554Z,33.07
2023-08-20T14:06:46.601Z,33.03
2023-08-20T14:09:15.442Z,33.13
2023-08-20T14:11:44.404Z,33.17
2023-08-20T14:14:12.953Z,33.11
2023-08-20T14:16:43.258Z,33.06
2023-08-20T14:19:12.497Z,33.10
2023-08-20T14:21:41.210Z,33.11
2023-08-20T14:24:10.316Z,33.14
2023-08-20T14:26:39.064Z,33.17
2023-08-20T14:29:07.851Z,33.09
2023-08-20T14:31:36.785Z,33.14
2023-08-20T14:34:07.502Z,33.18
2023-08-20T14:36:36.378Z,33.25
2023-08-20T14:39:06.014Z,33.34
2023-08-20T14:41:35.203Z,33.26
2023-08-20T14:44:04.375Z,33.28
2023-08-20T14:46:33.342Z,33.19
2023-08-20T14:49:02.074Z,33.08
2023-08-20T14:51:32.417Z,33.18
2023-08-20T14:54:01.314Z,33.12
2023-08-20T14:56:30.991Z,33.05
2023-08-20T14:58:59.978Z,33.08
2023-08-20T15:01:28.468Z,33.08
2023-08-20T15:03:57.483Z,33.06
2023-08-20T15:06:28.001Z,33.05
2023-08-20T15:08:58.597Z,33.01
2023-08-20T15:11:29.351Z,32.97
2023-08-20T15:13:58.232Z,32.95
2023-08-20T15:16:27.051Z,32.93
2023-08-20T15:18:56.922Z,32.95
2023-08-20T15:21:25.640Z,32.94
2023-08-20T15:23:54.404Z,32.90
2023-08-20T15:26:24.801Z,32.86
2023-08-20T15:28:53.599Z,32.81
2023-08-20T15:31:22.560Z,32.81
2023-08-20T15:33:53.344Z,32.77
2023-08-20T15:36:22.193Z,32.72
2023-08-20T15:38:51.004Z,32.62
2023-08-20T15:41:19.811Z,32.55
2023-08-20T15:43:51.126Z,32.49
2023-08-20T15:46:20.094Z,32.44
2023-08-20T15:48:48.952Z,32.37
2023-08-20T15:51:17.569Z,32.28
2023-08-20T15:53:46.384Z,32.28
2023-08-20T15:56:15.335Z,32.17
2023-08-20T15:58:44.023Z,32.09
2023-08-20T16:01:14.335Z,32.05
2023-08-20T16:03:44.523Z,31.99
2023-08-20T16:06:13.748Z,31.96
2023-08-20T16:08:42.141Z,31.91
2023-08-20T16:11:11.003Z,31.87
2023-08-20T16:13:39.714Z,31.84
2023-08-20T16:16:08.628Z,31.78
2023-08-20T16:18:38.832Z,31.71
2023-08-20T16:21:10.976Z,31.64
2023-08-20T16:23:39.879Z,31.59
2023-08-20T16:26:08.674Z,31.48
2023-08-20T16:28:38.516Z,31.40
2023-08-20T16:31:08.299Z,31.35
2023-08-20T16:33:38.561Z,31.26
2023-08-20T16:36:07.646Z,31.17
2023-08-20T16:38:36.144Z,31.04
2023-08-20T16:41:05.360Z,30.91
2023-08-20T16:43:37.211Z,30.79
2023-08-20T16:46:05.996Z,30.77
2023-08-20T16:48:34.755Z,30.66
2023-08-20T16:51:06.369Z,30.49
2023-08-20T16:53:35.171Z,30.30
2023-08-20T16:56:04.393Z,30.16
2023-08-20T16:58:33.990Z,29.97
2023-08-20T17:01:05.823Z,29.86
2023-08-20T17:03:34.941Z,29.70
2023-08-20T17:06:05.528Z,29.54
2023-08-20T17:08:34.385Z,29.45
2023-08-20T17:11:08.056Z,29.32
2023-08-20T17:13:39.064Z,29.16
2023-08-20T17:16:08.614Z,29.06
2023-08-20T17:18:37.903Z,28.95
2023-08-20T17:21:08.730Z,28.83
2023-08-20T17:23:37.640Z,28.77
2023-08-20T17:26:06.406Z,28.65
2023-08-20T17:28:35.312Z,28.50
2023-08-20T17:31:05.545Z,28.35
2023-08-20T17:33:35.252Z,28.21
2023-08-20T17:36:04.753Z,28.09
2023-08-20T17:38:34.896Z,28.03
2023-08-20T17:41:06.147Z,27.88
2023-08-20T17:43:35.040Z,27.74
2023-08-20T17:46:04.048Z,27.61
2023-08-20T17:48:33.071Z,27.50
2023-08-20T17:51:01.849Z,27.45
2023-08-20T17:53:30.673Z,27.40
2023-08-20T17:56:01.646Z,27.19
2023-08-20T17:58:30.999Z,27.00
2023-08-20T18:00:59.897Z,26.88
2023-08-20T18:03:28.837Z,26.86
2023-08-20T18:05:57.853Z,26.92
2023-08-20T18:08:26.761Z,26.97
2023-08-20T18:10:58.698Z,27.05
2023-08-20T18:13:30.141Z,27.10
2023-08-20T18:15:59.575Z,27.12
2023-08-20T18:18:29.891Z,27.15
2023-08-20T18:20:58.843Z,27.20
2023-08-20T18:23:27.904Z,27.17
2023-08-20T18:25:56.751Z,27.18
2023-08-20T18:28:25.711Z,27.14
2023-08-20T18:30:56.828Z,27.12
2023-08-20T18:33:27.819Z,27.08
2023-08-20T18:35:59.399Z,27.04
2023-08-20T18:38:40.888Z,27.00
2023-08-20T18:41:13.813Z,26.90
2023-08-20T18:43:43.000Z,26.81
2023-08-20T18:46:13.411Z,26.81
2023-08-20T18:48:42.722Z,26.76
2023-08-20T18:51:11.214Z,26.75
2023-08-20T18:53:40.100Z,26.70
2023-08-20T18:56:08.934Z,26.65
2023-08-20T18:58:37.779Z,26.60
2023-08-20T19:01:08.736Z,26.54
2023-08-20T19:03:39.246Z,26.43
2023-08-20T19:06:08.310Z,26.19
2023-08-20T19:08:37.073Z,26.02
2023-08-20T19:11:06.036Z,25.95
2023-08-20T19:13:34.906Z,25.89
2023-08-20T19:16:04.130Z,25.82
2023-08-20T19:18:32.869Z,25.65
2023-08-20T19:21:03.223Z,25.59
2023-08-20T19:23:32.149Z,25.51
2023-08-20T19:26:01.117Z,25.49
2023-08-20T19:28:30.197Z,25.44
2023-08-20T19:30:59.047Z,25.40
2023-08-20T19:33:28.014Z,25.30
2023-08-20T19:35:56.802Z,25.27
2023-08-20T19:38:27.224Z,25.17
2023-08-20T19:40:57.005Z,25.15
2023-08-20T19:43:25.986Z,25.02
2023-08-20T19:45:56.584Z,25.01
2023-08-20T19:48:26.160Z,24.96
2023-08-20T19:50:55.316Z,24.92
2023-08-20T19:53:24.037Z,24.82
2023-08-20T19:55:57.819Z,24.84
2023-08-20T19:58:27.245Z,24.83
2023-08-20T20:00:56.972Z,24.81
2023-08-20T20:03:25.912Z,24.70
2023-08-20T20:05:54.759Z,24.67
2023-08-20T20:08:25.621Z,24.61
2023-08-20T20:10:58.035Z,24.53
2023-08-20T20:13:27.016Z,24.47
2023-08-20T20:15:55.879Z,24.49
2023-08-20T20:18:24.991Z,24.46
2023-08-20T20:20:53.734Z,24.40
2023-08-20T20:23:22.696Z,24.31
2023-08-20T20:25:51.510Z,24.25
2023-08-20T20:28:21.846Z,24.29
2023-08-20T20:30:50.896Z,24.28
2023-08-20T20:33:19.715Z,24.25
2023-08-20T20:35:53.966Z,24.20
2023-08-20T20:38:23.328Z,24.15
2023-08-20T20:40:52.503Z,24.08
2023-08-20T20:43:26.050Z,24.10
2023-08-20T20:45:55.509Z,24.04
2023-08-20T20:48:24.015Z,23.98
2023-08-20T20:50:53.226Z,23.98
2023-08-20T20:53:22.029Z,24.08
2023-08-20T20:55:51.290Z,24.07
2023-08-20T20:58:20.139Z,24.07
2023-08-20T21:00:50.491Z,24.08
2023-08-20T21:03:19.536Z,24.07
2023-08-20T21:05:48.368Z,24.05
2023-08-20T21:08:17.202Z,24.02
2023-08-20T21:10:46.013Z,24.05
2023-08-20T21:13:15.325Z,24.09
2023-08-20T21:15:44.186Z,24.16
2023-08-20T21:18:14.634Z,24.18
2023-08-20T21:20:43.675Z,24.13
2023-08-20T21:23:12.469Z,24.02
2023-08-20T21:25:41.393Z,23.96
2023-08-20T21:28:10.588Z,23.91
2023-08-20T21:30:39.482Z,23.85
2023-08-20T21:33:08.508Z,23.80
2023-08-20T21:35:38.717Z,23.74
2023-08-20T21:38:07.732Z,23.64
2023-08-20T21:40:36.888Z,23.64
2023-08-20T21:43:08.392Z,23.56
2023-08-20T21:45:37.651Z,23.42
2023-08-20T21:48:07.288Z,23.45
2023-08-20T21:50:36.211Z,23.42
2023-08-20T21:53:06.877Z,23.38
2023-08-20T21:55:36.963Z,23.22
2023-08-20T21:58:06.044Z,23.17
2023-08-20T22:00:34.963Z,23.08
2023-08-20T22:05:32.462Z,23.16
2023-08-20T22:08:01.446Z,23.21
2023-08-20T22:10:31.852Z,23.12
2023-08-20T22:13:00.763Z,23.03
2023-08-20T22:15:29.766Z,23.03
2023-08-20T22:17:59.211Z,23.06
2023-08-20T22:20:28.437Z,23.06
2023-08-20T22:22:57.431Z,22.98
2023-08-20T22:25:26.703Z,22.89
2023-08-20T22:27:57.071Z,22.88
2023-08-20T22:30:25.994Z,22.87
2023-08-20T22:32:54.832Z,22.81
2023-08-20T22:35:24.136Z,22.72
2023-08-20T22:38:06.475Z,22.74
2023-08-20T22:40:35.598Z,22.75
2023-08-20T22:43:06.603Z,22.72
2023-08-20T22:45:35.632Z,22.67
2023-08-20T22:48:04.554Z,22.68
2023-08-20T22:50:34.184Z,22.80
2023-08-20T22:53:04.561Z,22.81
2023-08-20T22:55:33.423Z,22.76
2023-08-20T22:58:02.662Z,22.72
2023-08-20T23:00:32.963Z,22.70
2023-08-20T23:03:01.979Z,22.65
2023-08-20T23:05:30.880Z,22.65
2023-08-20T23:07:59.700Z,22.57
2023-08-20T23:10:28.547Z,22.51
2023-08-20T23:12:57.673Z,22.45
2023-08-20T23:15:26.419Z,22.43
2023-08-20T23:17:57.544Z,22.39
2023-08-20T23:20:26.441Z,22.39
2023-08-20T23:22:55.235Z,22.40
2023-08-20T23:25:24.397Z,22.47
2023-08-20T23:27:53.163Z,22.48
2023-08-20T23:30:22.009Z,22.51
2023-08-20T23:32:52.556Z,22.55
2023-08-20T23:35:23.122Z,22.54
2023-08-20T23:37:51.894Z,22.56
2023-08-20T23:40:20.771Z,22.59
2023-08-20T23:42:51.479Z,22.60
2023-08-20T23:45:20.359Z,22.59
2023-08-20T23:47:49.163Z,22.58
2023-08-20T23:50:18.356Z,22.61
2023-08-20T23:52:48.752Z,22.63
2023-08-20T23:55:17.794Z,22.53
2023-08-20T23:57:46.642Z,22.51
